Time;durP1;ratioP1;P1;durP2;ratioP2;P2;SDS_P1;SDS_P2;PMS_P1;PMS_P2;Temp;Humidity;BMP_temperature;BMP_pressure;BME280_temperature;BME280_humidity;BME280_pressure;Samples;Min_cycle;Max_cycle;Signal;HPM_P1;HPM_P2
2022/11/16 00:00:35;;;;;;;7.20;3.17;;;;;;;11.97;80.43;98933.69;5084426;28;20520;-62
2022/11/16 00:03:02;;;;;;;5.70;3.57;;;;;;;11.81;81.25;98937.31;5094670;28;20444;-62
2022/11/16 00:05:29;;;;;;;5.00;3.50;;;;;;;11.76;82.24;98939.72;5079679;28;20468;-63
2022/11/16 00:07:56;;;;;;;4.00;3.33;;;;;;;11.80;82.73;98930.28;5099105;28;20444;-62
2022/11/16 00:10:23;;;;;;;5.90;3.87;;;;;;;11.64;83.35;98924.06;5093782;28;20479;-62
2022/11/16 00:12:49;;;;;;;4.37;3.60;;;;;;;11.72;83.85;98931.22;5081192;28;20468;-63
2022/11/16 00:15:16;;;;;;;4.10;3.20;;;;;;;11.61;83.73;98924.44;5094173;28;20478;-62
2022/11/16 00:17:44;;;;;;;3.93;3.30;;;;;;;11.64;83.73;98923.25;5100080;28;20510;-62
2022/11/16 00:20:11;;;;;;;5.93;3.47;;;;;;;11.42;84.55;98922.22;5098825;28;20451;-62
2022/11/16 00:22:38;;;;;;;5.60;3.57;;;;;;;11.53;84.78;98929.00;5080876;28;20459;-63
2022/11/16 00:25:05;;;;;;;3.87;3.47;;;;;;;11.56;84.82;98921.47;5084336;28;20440;-63
2022/11/16 00:27:32;;;;;;;4.60;3.57;;;;;;;11.42;85.35;98917.72;5099268;28;21017;-62
2022/11/16 00:29:58;;;;;;;3.50;3.20;;;;;;;11.50;85.74;98919.50;5101160;28;20503;-63
2022/11/16 00:32:25;;;;;;;4.43;3.43;;;;;;;11.45;86.15;98919.19;5099198;28;20518;-63
2022/11/16 00:34:53;;;;;;;4.33;3.30;;;;;;;11.34;86.91;98914.28;5100178;28;20458;-63
2022/11/16 00:37:20;;;;;;;3.80;3.43;;;;;;;11.29;87.70;98902.25;5094929;28;20502;-63
2022/11/16 00:39:46;;;;;;;4.20;3.80;;;;;;;11.28;87.99;98900.59;5101179;28;20522;-62
2022/11/16 00:42:13;;;;;;;4.63;3.80;;;;;;;11.25;87.88;98906.31;5084967;28;20487;-63
2022/11/16 00:44:39;;;;;;;4.50;3.70;;;;;;;11.30;88.60;98903.94;5081382;28;20444;-63
2022/11/16 00:47:06;;;;;;;4.80;3.73;;;;;;;11.15;89.23;98897.69;5079930;28;20477;-63
2022/11/16 00:49:33;;;;;;;4.33;3.37;;;;;;;11.14;89.77;98889.84;5080062;28;20886;-64
2022/11/16 00:52:01;;;;;;;5.83;3.57;;;;;;;11.21;90.24;98891.59;5080358;28;20504;-63
2022/11/16 00:54:27;;;;;;;5.30;3.77;;;;;;;11.09;90.64;98893.88;5080502;28;20854;-64
2022/11/16 00:56:54;;;;;;;5.90;4.37;;;;;;;11.02;91.44;98886.72;5087387;28;20511;-63
2022/11/16 00:59:20;;;;;;;4.00;3.60;;;;;;;11.05;91.90;98879.19;5091883;28;20518;-64
2022/11/16 01:01:47;;;;;;;4.23;3.50;;;;;;;11.01;91.93;98877.06;5093816;28;20484;-63
2022/11/16 01:04:14;;;;;;;4.60;3.67;;;;;;;11.08;92.16;98876.16;5089292;28;20448;-63
2022/11/16 01:06:40;;;;;;;5.67;4.07;;;;;;;11.04;91.64;98871.31;5099096;28;20506;-63
2022/11/16 01:09:08;;;;;;;4.87;3.90;;;;;;;11.05;92.12;98865.81;5103870;28;20511;-63
2022/11/16 01:14:19;;;;;;;9.40;4.20;;;;;;;10.96;92.43;98866.06;5085055;28;20447;-62
2022/11/16 01:16:49;;;;;;;4.90;4.03;;;;;;;10.98;92.70;98864.03;5093002;28;20489;-62
2022/11/16 01:19:15;;;;;;;4.50;3.80;;;;;;;10.88;92.67;98857.09;5103024;28;20495;-61
2022/11/16 01:21:42;;;;;;;4.97;4.17;;;;;;;10.95;92.93;98867.06;5099644;28;20483;-63
2022/11/16 01:24:10;;;;;;;5.47;4.23;;;;;;;10.88;93.16;98857.09;5084180;28;20449;-63
2022/11/16 01:26:36;;;;;;;4.53;3.90;;;;;;;10.99;93.29;98865.69;5084563;28;20884;-61
2022/11/16 01:29:03;;;;;;;4.40;3.77;;;;;;;10.95;93.44;98859.03;5103745;28;20456;-63
2022/11/16 01:31:30;;;;;;;5.70;3.90;;;;;;;10.91;92.63;98861.22;5090969;28;20504;-63
2022/11/16 01:33:56;;;;;;;4.23;3.70;;;;;;;10.98;92.29;98850.66;5094202;28;20472;-62
2022/11/16 01:36:23;;;;;;;5.30;4.17;;;;;;;10.93;92.91;98852.00;5082675;28;20555;-63
2022/11/16 01:38:49;;;;;;;4.20;3.80;;;;;;;10.82;92.96;98856.94;5094662;28;20935;-62
2022/11/16 01:41:19;;;;;;;5.50;3.80;;;;;;;10.82;92.87;98832.88;5083041;28;21220;-62
2022/11/16 01:43:52;;;;;;;4.80;3.80;;;;;;;10.80;93.58;98843.75;5083246;28;20451;-63
2022/11/16 01:46:19;;;;;;;5.97;4.20;;;;;;;10.83;93.51;98843.41;5082449;28;20507;-63
2022/11/16 01:48:46;;;;;;;6.13;4.17;;;;;;;10.85;93.69;98846.72;5083289;28;20445;-63
2022/11/16 01:51:13;;;;;;;6.33;4.00;;;;;;;10.76;94.54;98839.75;5082097;28;20515;-63
2022/11/16 01:53:40;;;;;;;5.00;4.17;;;;;;;10.84;94.49;98838.88;5083267;28;20479;-63
2022/11/16 01:56:07;;;;;;;4.60;3.93;;;;;;;10.78;94.95;98832.41;5081564;28;20484;-63
2022/11/16 01:58:35;;;;;;;4.10;3.70;;;;;;;10.89;95.34;98834.66;5084422;28;20483;-63
2022/11/16 02:01:02;;;;;;;5.07;4.33;;;;;;;10.77;96.08;98822.72;5082688;28;20504;-63
2022/11/16 02:03:29;;;;;;;4.53;4.10;;;;;;;10.78;96.63;98824.41;5083741;28;20480;-63
2022/11/16 02:06:15;;;;;;;7.03;4.80;;;;;;;10.79;96.53;98818.03;5089446;28;20916;-62
2022/11/16 02:11:54;;;;;;;4.73;4.33;;;;;;;10.83;97.44;98816.69;5101426;28;20478;-62
2022/11/16 02:14:32;;;;;;;8.90;4.67;;;;;;;10.83;97.69;98810.47;5090750;28;20750;-62
2022/11/16 02:17:05;;;;;;;6.37;4.83;;;;;;;10.76;97.95;98807.69;5082423;28;20545;-63
2022/11/16 02:20:00;;;;;;;7.57;4.23;;;;;;;10.79;98.06;98798.47;5081130;28;20523;-63
2022/11/16 02:22:39;;;;;;;10.27;4.63;;;;;;;10.71;98.58;98802.03;5088200;28;20544;-63
2022/11/16 02:25:08;;;;;;;4.90;4.40;;;;;;;10.76;99.12;98807.69;5083011;28;20460;-63
2022/11/16 02:28:04;;;;;;;4.53;4.13;;;;;;;10.68;99.48;98795.22;5081846;28;20538;-62
2022/11/16 02:30:32;;;;;;;4.23;3.77;;;;;;;10.62;100.00;98789.75;5095287;28;20500;-63
2022/11/16 02:33:01;;;;;;;5.50;4.83;;;;;;;10.60;100.00;98787.25;5102407;28;20490;-63
2022/11/16 02:35:31;;;;;;;5.30;4.80;;;;;;;10.61;100.00;98780.06;5086909;28;20568;-63
2022/11/16 02:38:00;;;;;;;5.20;4.40;;;;;;;10.65;100.00;98789.38;5087185;28;20510;-64
2022/11/16 02:40:29;;;;;;;7.63;5.10;;;;;;;10.61;100.00;98777.41;5097178;28;20523;-63
2022/11/16 02:43:00;;;;;;;6.90;4.77;;;;;;;10.58;100.00;98786.59;5100491;28;20463;-64
2022/11/16 02:45:29;;;;;;;6.87;5.00;;;;;;;10.54;100.00;98777.28;5093554;28;20474;-64
2022/11/16 02:48:01;;;;;;;7.87;6.13;;;;;;;10.58;100.00;98775.06;5095491;28;20504;-64
2022/11/16 02:50:29;;;;;;;7.67;5.43;;;;;;;10.56;100.00;98764.56;5092971;28;20495;-64
2022/11/16 02:52:55;;;;;;;8.03;6.10;;;;;;;10.45;100.00;98771.16;5093756;28;20487;-63
2022/11/16 02:55:22;;;;;;;9.13;5.40;;;;;;;10.44;100.00;98765.97;5095345;28;20443;-63
2022/11/16 02:57:51;;;;;;;7.60;5.73;;;;;;;10.35;100.00;98763.34;5097984;28;20456;-63
2022/11/16 03:00:23;;;;;;;6.57;5.73;;;;;;;10.41;100.00;98766.31;5101318;28;20517;-65
2022/11/16 03:03:19;;;;;;;8.23;6.40;;;;;;;10.42;100.00;98762.66;5086541;28;20485;-65
2022/11/16 03:05:48;;;;;;;9.10;5.87;;;;;;;10.37;100.00;98765.84;5093646;28;20562;-61
2022/11/16 03:08:19;;;;;;;7.83;6.40;;;;;;;10.39;100.00;98761.16;5096024;28;20472;-61
2022/11/16 03:13:34;;;;;;;7.73;6.43;;;;;;;10.42;100.00;98763.47;5098443;28;20821;-62
2022/11/16 03:16:03;;;;;;;7.90;6.70;;;;;;;10.43;100.00;98758.97;5100284;28;20555;-62
2022/11/16 03:18:31;;;;;;;11.13;7.27;;;;;;;10.45;100.00;98762.28;5100860;28;20470;-62
2022/11/16 03:21:04;;;;;;;11.10;7.03;;;;;;;10.41;100.00;98766.31;5100158;28;20483;-62
2022/11/16 03:23:31;;;;;;;10.30;8.30;;;;;;;10.38;100.00;98761.31;5094086;28;20494;-62
2022/11/16 03:25:58;;;;;;;9.37;8.27;;;;;;;10.30;100.00;98756.84;5086433;28;20566;-61
2022/11/16 03:28:28;;;;;;;10.10;8.00;;;;;;;10.22;100.00;98755.03;5101293;28;20900;-62
2022/11/16 03:30:58;;;;;;;9.87;8.30;;;;;;;10.29;100.00;98758.66;5082455;28;20472;-62
2022/11/16 03:33:27;;;;;;;9.53;8.13;;;;;;;10.21;100.00;98750.72;5086765;28;20458;-62
2022/11/16 03:35:59;;;;;;;10.27;8.20;;;;;;;10.24;100.00;98754.84;5100463;28;20476;-62
2022/11/16 03:38:27;;;;;;;11.30;8.80;;;;;;;10.20;100.00;98753.56;5100732;28;20446;-62
2022/11/16 03:40:57;;;;;;;9.47;8.47;;;;;;;10.23;100.00;98754.03;5100758;28;20511;-62
2022/11/16 03:43:25;;;;;;;11.90;8.73;;;;;;;10.23;100.00;98753.22;5089821;28;20480;-62
2022/11/16 03:45:51;;;;;;;15.73;9.73;;;;;;;10.20;100.00;98750.88;5080977;28;21007;-62
2022/11/16 03:48:18;;;;;;;15.27;10.00;;;;;;;10.28;100.00;98751.66;5080467;28;20432;-62
2022/11/16 03:50:45;;;;;;;10.40;9.30;;;;;;;10.28;100.00;98743.66;5099864;28;20922;-62
2022/11/16 03:53:13;;;;;;;13.83;10.37;;;;;;;10.18;100.00;98735.03;5100493;28;20448;-63
2022/11/16 03:55:39;;;;;;;15.43;10.60;;;;;;;10.05;100.00;98737.44;5100106;28;21034;-62
2022/11/16 03:58:06;;;;;;;12.53;9.87;;;;;;;10.18;100.00;98743.88;5100668;28;20463;-62
2022/11/16 04:00:33;;;;;;;14.50;10.30;;;;;;;10.21;100.00;98740.03;5099384;28;20485;-62
2022/11/16 04:02:59;;;;;;;14.97;11.00;;;;;;;10.13;100.00;98740.88;5101253;28;20523;-61
2022/11/16 04:24:49;;;;;;;12.80;10.60;;;;;;;10.09;100.00;98733.41;5101090;28;20787;-63
2022/11/16 04:30:01;;;;;;;15.43;11.97;;;;;;;9.92;100.00;98732.66;5080356;28;20507;-63
2022/11/16 04:37:57;;;;;;;12.90;11.50;;;;;;;9.98;100.00;98748.81;5097929;28;21021;-64
2022/11/16 04:40:28;;;;;;;18.27;13.37;;;;;;;10.02;100.00;98746.63;5091371;28;20527;-63
2022/11/16 04:42:55;;;;;;;16.87;13.10;;;;;;;10.03;100.00;98747.44;5083786;28;20468;-63
2022/11/16 04:48:07;;;;;;;17.87;13.10;;;;;;;9.89;100.00;98744.50;5083605;28;20474;-65
2022/11/16 04:50:33;;;;;;;23.20;14.00;;;;;;;10.00;100.00;98748.66;5087533;28;20467;-63
2022/11/16 04:53:00;;;;;;;17.77;13.33;;;;;;;10.04;100.00;98746.47;5104822;28;20449;-64
2022/11/16 04:55:28;;;;;;;17.90;13.47;;;;;;;10.03;100.00;98747.44;5087950;28;20464;-64
2022/11/16 04:57:55;;;;;;;16.63;12.10;;;;;;;10.12;100.00;98747.25;5084067;28;20472;-64
2022/11/16 05:00:22;;;;;;;18.53;12.97;;;;;;;10.09;100.00;98750.25;5093067;28;20788;-62
2022/11/16 05:02:48;;;;;;;19.83;13.73;;;;;;;10.09;100.00;98744.09;5074805;28;20484;-64
2022/11/16 05:05:15;;;;;;;18.77;13.03;;;;;;;10.01;100.00;98744.13;5090431;28;20516;-63
2022/11/16 05:07:42;;;;;;;20.90;14.10;;;;;;;10.01;100.00;98730.78;5089502;28;20475;-63
2022/11/16 05:10:09;;;;;;;20.93;13.30;;;;;;;10.06;100.00;98733.75;5087448;28;20468;-64
2022/11/16 05:12:37;;;;;;;16.43;13.90;;;;;;;9.91;100.00;98734.50;5095511;28;20478;-63
2022/11/16 05:15:05;;;;;;;16.33;13.00;;;;;;;9.92;100.00;98741.50;5098678;28;20473;-63
2022/11/16 05:17:31;;;;;;;17.77;14.20;;;;;;;10.05;100.00;98735.59;5103627;28;20451;-63
2022/11/16 05:22:42;;;;;;;19.60;14.10;;;;;;;9.98;100.00;98724.78;5083473;28;20521;-63
2022/11/16 05:25:09;;;;;;;17.73;14.50;;;;;;;10.10;100.00;98729.72;5082716;28;20440;-63
2022/11/16 05:27:37;;;;;;;19.55;16.58;;;;;;;10.06;100.00;98733.75;5077809;28;20524;-63
2022/11/16 05:30:04;;;;;;;17.57;15.10;;;;;;;10.05;100.00;98729.41;5078874;28;20317;-71
2022/11/16 05:32:31;;;;;;;18.83;14.20;;;;;;;10.11;100.00;98734.91;5086515;28;20518;-71
2022/11/16 05:34:57;;;;;;;21.07;13.70;;;;;;;10.01;100.00;98739.63;5069148;28;20541;-71
2022/11/16 05:37:25;;;;;;;16.73;13.53;;;;;;;10.07;100.00;98738.94;5083177;28;20551;-70
2022/11/16 05:39:53;;;;;;;20.43;13.90;;;;;;;10.09;100.00;98736.09;5077410;28;20491;-70
2022/11/16 05:42:20;;;;;;;15.93;12.60;;;;;;;10.13;100.00;98737.38;5081900;28;20480;-72
2022/11/16 05:44:48;;;;;;;18.40;14.20;;;;;;;10.12;100.00;98741.06;5091498;28;20523;-71
2022/11/16 05:47:14;;;;;;;18.07;14.03;;;;;;;10.09;100.00;98733.41;5085679;28;20507;-72
2022/11/16 05:49:41;;;;;;;20.60;13.97;;;;;;;10.11;100.00;98740.22;5085622;28;20479;-72
2022/11/16 05:52:08;;;;;;;19.60;15.00;;;;;;;10.12;100.00;98733.91;5094695;28;20503;-71
2022/11/16 05:54:34;;;;;;;16.93;13.03;;;;;;;10.13;100.00;98737.38;5095877;28;20458;-69
2022/11/16 05:57:01;;;;;;;17.07;13.40;;;;;;;10.01;100.00;98738.78;5083863;28;20481;-71
2022/11/16 05:59:28;;;;;;;18.20;14.03;;;;;;;10.01;100.00;98742.28;5087115;28;20514;-71
2022/11/16 06:01:56;;;;;;;25.50;13.53;;;;;;;10.10;100.00;98732.41;5078695;28;20480;-71
2022/11/16 06:04:23;;;;;;;16.27;12.90;;;;;;;10.07;100.00;98735.41;5086880;28;20493;-70
2022/11/16 06:06:50;;;;;;;18.50;13.37;;;;;;;10.12;100.00;98739.25;5092463;28;20483;-66
2022/11/16 06:09:16;;;;;;;18.13;14.07;;;;;;;10.13;100.00;98740.88;5083860;28;20514;-70
2022/11/16 06:11:43;;;;;;;17.60;14.37;;;;;;;10.09;100.00;98757.44;5081038;28;20477;-72
2022/11/16 06:14:09;;;;;;;15.60;12.93;;;;;;;10.12;100.00;98757.94;5082800;28;20476;-71
2022/11/16 06:16:36;;;;;;;16.73;13.30;;;;;;;10.12;100.00;98760.59;5096342;28;20503;-72
2022/11/16 06:19:04;;;;;;;18.07;13.67;;;;;;;10.18;100.00;98765.22;5072943;28;20512;-72
2022/11/16 06:21:31;;;;;;;22.53;14.40;;;;;;;10.07;100.00;98764.78;5080685;28;20507;-72
2022/11/16 06:23:58;;;;;;;17.23;12.90;;;;;;;10.09;100.00;98758.28;5077765;28;20448;-72
2022/11/16 06:26:25;;;;;;;19.10;13.03;;;;;;;10.08;100.00;98758.44;5079481;28;20516;-73
2022/11/16 06:28:53;;;;;;;16.23;13.17;;;;;;;10.13;100.00;98764.91;5084231;28;20951;-71
2022/11/16 06:31:20;;;;;;;19.60;14.20;;;;;;;10.17;100.00;98776.09;5081947;28;21076;-72
2022/11/16 06:33:46;;;;;;;16.60;12.67;;;;;;;10.10;100.00;98769.78;5081454;28;21175;-72
2022/11/16 06:36:15;;;;;;;18.10;12.87;;;;;;;10.11;100.00;98760.78;5079855;28;21111;-72
2022/11/16 06:38:41;;;;;;;16.17;12.70;;;;;;;10.15;100.00;98770.09;5081454;28;20444;-73
2022/11/16 06:41:08;;;;;;;20.20;12.77;;;;;;;10.08;100.00;98767.28;5080861;28;20472;-73
2022/11/16 06:43:35;;;;;;;17.43;13.40;;;;;;;10.22;100.00;98778.25;5087085;28;20448;-71
2022/11/16 06:46:01;;;;;;;15.60;13.20;;;;;;;10.15;100.00;98783.44;5090186;28;20513;-72
2022/11/16 06:48:28;;;;;;;20.03;12.57;;;;;;;10.18;100.00;98789.25;5093947;28;20482;-73
2022/11/16 06:50:54;;;;;;;19.33;13.47;;;;;;;10.09;100.00;98787.66;5100819;28;20502;-72
2022/11/16 06:53:22;;;;;;;17.37;12.50;;;;;;;10.18;100.00;98793.78;5084680;28;20469;-73
2022/11/16 06:55:49;;;;;;;19.67;12.90;;;;;;;10.12;100.00;98791.78;5086499;28;20503;-72
2022/11/16 06:58:16;;;;;;;18.50;13.40;;;;;;;10.20;100.00;98797.09;5087613;28;20440;-73
2022/11/16 07:00:43;;;;;;;17.33;12.77;;;;;;;10.15;100.00;98796.78;5089714;28;20486;-71
2022/11/16 07:03:09;;;;;;;16.90;12.27;;;;;;;10.19;100.00;98800.81;5092781;28;20451;-72
2022/11/16 07:05:40;;;;;;;16.47;12.53;;;;;;;10.27;100.00;98807.94;5086458;28;20511;-72
2022/11/16 07:08:06;;;;;;;16.60;13.13;;;;;;;10.31;100.00;98806.56;5080593;28;20532;-72
2022/11/16 07:10:34;;;;;;;15.60;12.67;;;;;;;10.29;100.00;98816.59;5077074;28;20796;-72
2022/11/16 07:13:03;;;;;;;16.20;12.07;;;;;;;10.18;100.00;98809.81;5082659;28;20448;-71
2022/11/16 07:15:29;;;;;;;16.73;12.93;;;;;;;10.20;100.00;98817.66;5084775;28;20463;-72
2022/11/16 07:17:56;;;;;;;16.80;13.00;;;;;;;10.15;100.00;98807.47;5084759;28;20483;-71
2022/11/16 07:20:23;;;;;;;16.33;12.33;;;;;;;10.17;100.00;98809.00;5074313;28;20527;-71
2022/11/16 07:22:49;;;;;;;16.90;12.53;;;;;;;10.26;100.00;98809.78;5085021;28;20848;-72
2022/11/16 07:25:16;;;;;;;18.93;13.03;;;;;;;10.13;100.00;98820.19;5100602;28;20465;-72
2022/11/16 07:27:44;;;;;;;19.80;13.23;;;;;;;10.31;100.00;98828.81;5082456;28;20512;-72
2022/11/16 07:30:12;;;;;;;18.03;13.00;;;;;;;10.21;100.00;98829.97;5086088;28;20494;-70
2022/11/16 07:32:39;;;;;;;18.53;13.17;;;;;;;10.24;100.00;98832.31;5079633;28;20953;-73
2022/11/16 07:35:06;;;;;;;16.33;12.33;;;;;;;10.29;100.00;98833.44;5100166;28;20456;-73
2022/11/16 07:37:34;;;;;;;14.90;11.80;;;;;;;10.29;100.00;98832.63;5078040;28;20514;-71
2022/11/16 07:40:01;;;;;;;18.50;13.23;;;;;;;10.30;100.00;98828.97;5079014;28;20508;-72
2022/11/16 07:42:27;;;;;;;16.83;13.87;;;;;;;10.43;100.00;98833.75;5099467;28;20498;-73
2022/11/16 07:44:55;;;;;;;20.90;13.77;;;;;;;10.36;100.00;98830.94;5099483;28;20482;-72
2022/11/16 07:47:22;;;;;;;18.63;13.80;;;;;;;10.33;100.00;98839.34;5098416;28;20506;-71
2022/11/16 07:49:48;;;;;;;18.70;13.27;;;;;;;10.38;100.00;98842.31;5100540;28;20435;-72
2022/11/16 07:52:15;;;;;;;18.00;13.20;;;;;;;10.44;100.00;98846.94;5080964;28;20511;-72
2022/11/16 07:54:42;;;;;;;17.50;13.20;;;;;;;10.52;100.00;98854.94;5081552;28;20593;-73
2022/11/16 07:57:08;;;;;;;17.63;11.87;;;;;;;10.43;100.00;98853.28;5091753;28;21100;-72
2022/11/16 07:59:35;;;;;;;15.63;11.97;;;;;;;10.53;100.00;98851.25;5080518;28;20445;-73
2022/11/16 08:02:03;;;;;;;17.83;12.10;;;;;;;10.51;100.00;98858.59;5078904;28;20469;-72
2022/11/16 08:04:30;;;;;;;16.23;12.50;;;;;;;10.55;100.00;98861.75;5079804;28;20456;-72
2022/11/16 08:06:56;;;;;;;14.83;12.00;;;;;;;10.54;100.00;98863.59;5098598;28;20485;-72
2022/11/16 08:09:23;;;;;;;16.83;12.57;;;;;;;10.53;100.00;98869.13;5091308;28;21151;-71
2022/11/16 08:11:50;;;;;;;21.00;13.67;;;;;;;10.67;100.00;98876.41;5079489;28;20492;-71
2022/11/16 08:14:18;;;;;;;16.70;13.43;;;;;;;10.61;100.00;98879.78;5079429;28;20449;-71
2022/11/16 08:16:44;;;;;;;15.97;11.87;;;;;;;10.60;100.00;98871.94;5080181;28;20480;-70
2022/11/16 08:19:12;;;;;;;15.73;12.00;;;;;;;10.63;100.00;98874.25;5083734;28;20440;-70
2022/11/16 08:21:39;;;;;;;16.50;12.03;;;;;;;10.49;100.00;98879.31;5082229;28;20603;-69
2022/11/16 08:24:06;;;;;;;16.30;12.30;;;;;;;10.52;100.00;98878.16;5095093;28;20451;-73
2022/11/16 08:26:32;;;;;;;19.83;12.93;;;;;;;10.64;100.00;98879.44;5096849;28;20484;-73
2022/11/16 08:28:59;;;;;;;17.93;13.33;;;;;;;10.72;100.00;98878.56;5083838;28;20472;-71
2022/11/16 08:31:27;;;;;;;19.27;11.73;;;;;;;10.60;100.00;98877.28;5082729;28;20535;-72
2022/11/16 08:33:55;;;;;;;15.50;10.87;;;;;;;10.68;100.00;98882.59;5082996;28;20456;-72
2022/11/16 08:36:23;;;;;;;20.33;12.80;;;;;;;10.53;100.00;98880.63;5082465;28;20511;-68
2022/11/16 08:38:50;;;;;;;15.10;11.27;;;;;;;10.63;100.00;98883.09;5096314;28;20475;-72
2022/11/16 08:41:18;;;;;;;18.90;12.60;;;;;;;10.61;100.00;98876.28;5090513;28;20486;-72
2022/11/16 08:43:46;;;;;;;11.70;10.23;;;;;;;10.69;100.00;98879.75;5103262;28;20501;-73
2022/11/16 08:46:13;;;;;;;15.50;10.23;;;;;;;10.55;100.00;98877.78;5097419;28;20476;-72
2022/11/16 08:48:39;;;;;;;13.23;10.40;;;;;;;10.51;100.00;98879.16;5096866;28;20436;-73
2022/11/16 08:51:07;;;;;;;18.63;11.83;;;;;;;10.66;100.00;98880.09;5092984;28;20487;-69
2022/11/16 08:53:36;;;;;;;14.30;10.90;;;;;;;10.63;100.00;98876.94;5082643;28;20498;-72
2022/11/16 08:56:04;;;;;;;12.33;9.33;;;;;;;10.77;100.00;98876.19;5082929;28;20499;-71
2022/11/16 08:58:30;;;;;;;12.83;10.67;;;;;;;10.63;100.00;98882.28;5082563;28;20448;-69
2022/11/16 09:00:57;;;;;;;12.80;9.90;;;;;;;10.68;100.00;98875.41;5087594;28;20504;-70
2022/11/16 09:03:24;;;;;;;13.90;10.03;;;;;;;10.85;100.00;98877.97;5098958;28;20476;-70
2022/11/16 09:05:50;;;;;;;15.23;10.00;;;;;;;10.80;100.00;98877.66;5081694;28;20472;-68
2022/11/16 09:08:17;;;;;;;12.00;9.23;;;;;;;10.83;100.00;98871.97;5083163;28;20474;-70
2022/11/16 09:10:45;;;;;;;14.63;9.90;;;;;;;10.91;100.00;98871.94;5088878;28;20483;-71
2022/11/16 09:13:12;;;;;;;14.83;10.70;;;;;;;11.05;100.00;98864.97;5082764;28;20478;-69
2022/11/16 09:15:38;;;;;;;16.07;9.67;;;;;;;10.93;100.00;98872.56;5081337;28;20476;-71
2022/11/16 09:18:05;;;;;;;12.20;10.20;;;;;;;10.91;100.00;98870.06;5082520;28;20448;-70
2022/11/16 09:20:32;;;;;;;10.80;9.37;;;;;;;11.20;100.00;98886.47;5081336;28;20507;-71
2022/11/16 09:22:58;;;;;;;11.20;9.20;;;;;;;11.21;100.00;98883.56;5081710;28;20465;-72
2022/11/16 09:25:25;;;;;;;10.67;9.20;;;;;;;11.21;100.00;98888.94;5091506;28;20961;-71
2022/11/16 09:27:54;;;;;;;11.73;9.57;;;;;;;11.22;100.00;98887.09;5085669;28;20439;-70
2022/11/16 09:30:21;;;;;;;12.63;9.20;;;;;;;11.22;100.00;98898.63;5079794;28;20493;-71
2022/11/16 09:32:47;;;;;;;17.00;9.00;;;;;;;11.31;100.00;98902.09;5081842;28;20456;-71
2022/11/16 09:35:16;;;;;;;13.60;8.83;;;;;;;11.25;100.00;98898.28;5080459;28;20529;-70
2022/11/16 09:37:42;;;;;;;10.63;8.60;;;;;;;11.31;100.00;98902.09;5082185;28;20444;-70
2022/11/16 09:40:11;;;;;;;11.20;9.40;;;;;;;11.37;100.00;98905.88;5099533;28;20481;-70
2022/11/16 09:42:45;;;;;;;10.43;8.30;;;;;;;11.46;100.00;98902.97;5082895;28;20460;-70
2022/11/16 09:45:15;;;;;;;10.60;7.93;;;;;;;11.61;100.00;98910.22;5081174;28;20503;-71
2022/11/16 09:47:48;;;;;;;9.80;8.80;;;;;;;11.68;100.00;98909.31;5081175;28;20448;-71
2022/11/16 09:50:32;;;;;;;10.77;8.23;;;;;;;11.57;100.00;98912.41;5087222;28;20519;-71
2022/11/16 09:53:05;;;;;;;11.23;8.57;;;;;;;11.70;100.00;98906.47;5094447;28;20460;-70
2022/11/16 09:55:34;;;;;;;8.10;6.90;;;;;;;11.75;100.00;98913.94;5081411;28;20476;-71
2022/11/16 09:58:03;;;;;;;8.37;6.50;;;;;;;12.00;100.00;98906.56;5094861;28;20439;-70
2022/11/16 10:00:31;;;;;;;7.43;6.17;;;;;;;11.97;99.16;98912.25;5095729;28;20495;-71
2022/11/16 10:03:01;;;;;;;6.97;5.97;;;;;;;11.84;98.96;98907.50;5077855;28;20448;-71
2022/11/16 10:05:32;;;;;;;7.00;6.20;;;;;;;12.02;98.40;98912.56;5080993;28;21011;-70
2022/11/16 10:08:03;;;;;;;8.50;6.30;;;;;;;11.77;98.64;98912.75;5088242;28;20440;-71
2022/11/16 10:10:34;;;;;;;7.13;6.20;;;;;;;11.78;99.03;98913.56;5098924;28;20475;-70
2022/11/16 10:13:05;;;;;;;7.03;5.70;;;;;;;11.61;99.15;98919.09;5087174;28;20452;-72
2022/11/16 10:15:41;;;;;;;8.13;6.20;;;;;;;11.66;99.37;98923.88;5091484;28;20471;-69
2022/11/16 10:18:19;;;;;;;7.17;6.00;;;;;;;11.44;99.77;98918.38;5082136;28;20870;-71
2022/11/16 10:20:58;;;;;;;11.13;6.80;;;;;;;11.56;100.00;98915.25;5079384;28;20519;-69
2022/11/16 10:23:35;;;;;;;9.00;5.97;;;;;;;11.55;100.00;98921.66;5064580;28;20556;-68
2022/11/16 10:26:06;;;;;;;6.70;5.93;;;;;;;11.71;100.00;98909.97;5079748;28;20552;-71
2022/11/16 10:28:52;;;;;;;7.60;6.90;;;;;;;11.77;98.91;98911.91;5080652;28;20455;-72
2022/11/16 10:31:23;;;;;;;8.10;6.07;;;;;;;11.86;99.09;98902.81;5079229;28;20472;-70
2022/11/16 10:33:52;;;;;;;11.87;7.50;;;;;;;12.52;97.89;98904.81;5072670;28;20456;-70
2022/11/16 10:36:20;;;;;;;10.70;7.00;;;;;;;13.48;91.77;98897.41;5079394;28;20472;-71
2022/11/16 10:38:47;;;;;;;13.20;8.23;;;;;;;14.07;90.24;98896.22;5081246;28;20436;-68
2022/11/16 10:41:18;;;;;;;11.33;8.57;;;;;;;13.77;87.01;98902.84;5082515;28;20480;-70
2022/11/16 10:43:45;;;;;;;7.77;6.77;;;;;;;13.78;87.31;98905.31;5083947;28;20453;-71
2022/11/16 10:46:15;;;;;;;7.53;6.10;;;;;;;13.79;86.29;98904.31;5083244;28;20879;-72
2022/11/16 10:48:50;;;;;;;7.27;6.43;;;;;;;13.96;84.40;98898.63;5083986;28;20444;-70
2022/11/16 10:51:17;;;;;;;8.60;6.53;;;;;;;13.59;84.29;98892.56;5079127;28;20475;-70
2022/11/16 10:53:44;;;;;;;7.90;5.83;;;;;;;13.74;85.63;98893.31;5080221;28;20453;-72
2022/11/16 10:56:17;;;;;;;8.40;5.70;;;;;;;13.99;84.56;98891.03;5086137;28;20483;-71
2022/11/16 10:58:53;;;;;;;6.30;5.70;;;;;;;13.71;84.02;98901.75;5101045;28;20469;-71
2022/11/16 11:01:35;;;;;;;9.03;5.47;;;;;;;14.12;83.92;98885.72;5088378;28;20484;-71
2022/11/16 11:04:24;;;;;;;7.30;5.07;;;;;;;13.87;84.91;98882.69;5077683;28;20449;-71
2022/11/16 11:06:52;;;;;;;10.97;5.70;;;;;;;13.87;85.96;98889.88;5084091;28;20500;-71
2022/11/16 11:09:27;;;;;;;6.03;5.43;;;;;;;14.51;82.00;98888.81;5084570;28;20479;-71
2022/11/16 11:15:00;;;;;;;9.60;5.50;;;;;;;14.20;82.43;98898.19;5100242;28;20493;-71
2022/11/16 11:17:27;;;;;;;5.70;4.90;;;;;;;13.97;83.22;98898.44;5098348;28;20497;-71
2022/11/16 11:20:00;;;;;;;5.90;5.30;;;;;;;14.09;82.12;98898.72;5080044;28;20479;-72
2022/11/16 11:22:27;;;;;;;7.00;5.30;;;;;;;14.48;82.33;98894.63;5100036;28;20483;-71
2022/11/16 11:24:54;;;;;;;5.60;5.00;;;;;;;14.55;80.25;98894.63;5100159;28;20448;-72
2022/11/16 11:27:23;;;;;;;8.80;5.20;;;;;;;14.27;81.66;98900.94;5093047;28;20576;-72
2022/11/16 11:29:52;;;;;;;6.07;4.90;;;;;;;13.99;81.86;98896.41;5088486;28;20491;-71
2022/11/16 11:32:20;;;;;;;8.17;5.23;;;;;;;14.11;82.08;98899.34;5087223;28;20476;-71
2022/11/16 11:34:48;;;;;;;8.30;5.00;;;;;;;14.07;81.22;98890.84;5079531;28;20460;-68
2022/11/16 11:37:19;;;;;;;6.10;4.50;;;;;;;14.18;82.17;98892.16;5080551;28;20461;-71
2022/11/16 11:39:46;;;;;;;7.53;4.50;;;;;;;14.53;80.87;98883.25;5090045;28;20473;-71
2022/11/16 11:42:22;;;;;;;4.97;4.10;;;;;;;14.99;76.91;98894.22;5082015;28;20524;-72
2022/11/16 11:44:55;;;;;;;6.93;3.77;;;;;;;14.49;76.45;98894.44;5071369;28;21015;-73
2022/11/16 11:47:31;;;;;;;6.67;3.90;;;;;;;14.87;73.92;98902.03;5079065;28;20484;-71
2022/11/16 11:50:03;;;;;;;10.13;4.30;;;;;;;14.71;73.81;98891.66;5097943;28;20443;-70
2022/11/16 11:52:36;;;;;;;6.40;3.20;;;;;;;15.47;71.83;98890.59;5091691;28;20495;-72
2022/11/16 11:55:05;;;;;;;6.20;3.70;;;;;;;15.73;68.68;98884.38;5090945;28;20488;-72
2022/11/16 11:57:33;;;;;;;5.70;2.93;;;;;;;16.24;69.27;98885.59;5083061;28;20486;-72
2022/11/16 12:00:04;;;;;;;5.60;2.63;;;;;;;15.95;65.83;98876.94;5094255;28;20458;-72
2022/11/16 12:02:40;;;;;;;7.30;2.60;;;;;;;15.71;67.78;98889.16;5088649;28;20498;-72
2022/11/16 12:05:23;;;;;;;8.63;2.43;;;;;;;15.47;66.87;98878.97;5062709;28;20481;-72
2022/11/16 12:08:03;;;;;;;4.87;2.50;;;;;;;14.78;69.04;98880.91;5080162;28;20459;-71
2022/11/16 12:10:36;;;;;;;3.40;2.07;;;;;;;14.56;70.48;98891.75;5079335;28;20465;-71
2022/11/16 12:13:18;;;;;;;4.83;2.37;;;;;;;14.50;69.11;98892.56;5086713;28;20475;-71